createdAt,value
2022-12-04T00:02:10.601Z,22.52
2022-12-04T00:04:57.873Z,26.92
2022-12-04T00:07:45.299Z,26.67
2022-12-04T00:10:32.490Z,24.98
2022-12-04T00:13:19.839Z,25.88
2022-12-04T00:16:09.526Z,18.52
2022-12-04T00:18:57.731Z,21.73
2022-12-04T00:21:45.478Z,22.45
2022-12-04T00:24:33.776Z,21.63
2022-12-04T00:27:20.923Z,21.60
2022-12-04T00:30:08.752Z,19.02
2022-12-04T00:32:36.133Z,21.15
2022-12-04T00:35:04.087Z,19.92
2022-12-04T00:37:51.207Z,22.08
2022-12-04T00:40:38.345Z,20.60
2022-12-04T00:43:25.670Z,19.27
2022-12-04T00:46:12.923Z,17.63
2022-12-04T00:49:02.536Z,20.90
2022-12-04T00:51:49.718Z,17.33
2022-12-04T00:54:36.827Z,18.77
2022-12-04T00:57:23.961Z,18.60
2022-12-04T01:00:11.434Z,15.88
2022-12-04T01:02:58.615Z,22.67
2022-12-04T01:05:46.027Z,16.98
2022-12-04T01:08:34.245Z,17.25
2022-12-04T01:11:22.632Z,20.67
2022-12-04T01:14:09.801Z,17.05
2022-12-04T01:16:56.964Z,18.75
2022-12-04T01:19:44.160Z,17.90
2022-12-04T01:22:31.271Z,17.77
2022-12-04T01:25:18.453Z,23.08
2022-12-04T01:28:05.645Z,20.20
2022-12-04T01:31:07.362Z,20.65
2022-12-04T01:33:54.590Z,20.10
2022-12-04T01:36:41.635Z,19.17
2022-12-04T01:39:28.682Z,18.40
2022-12-04T01:42:16.333Z,17.35
2022-12-04T01:45:43.127Z,19.58
2022-12-04T01:48:33.088Z,17.98
2022-12-04T01:51:25.172Z,19.27
2022-12-04T01:54:18.316Z,19.13
2022-12-04T01:57:18.088Z,18.27
2022-12-04T02:00:09.197Z,17.98
2022-12-04T02:02:56.926Z,18.52
2022-12-04T02:05:44.100Z,18.50
2022-12-04T02:08:35.215Z,19.70
2022-12-04T02:11:25.243Z,20.73
2022-12-04T02:14:52.362Z,19.50
2022-12-04T02:17:50.793Z,19.38
2022-12-04T02:20:47.389Z,17.13
2022-12-04T02:23:47.138Z,20.35
2022-12-04T02:26:46.529Z,18.13
2022-12-04T02:30:04.126Z,18.05
2022-12-04T02:33:14.960Z,19.30
2022-12-04T02:36:11.572Z,19.35
2022-12-04T02:39:21.885Z,21.45
2022-12-04T02:42:24.775Z,20.50
2022-12-04T02:45:16.089Z,19.58
2022-12-04T02:50:54.623Z,16.67
2022-12-04T02:53:45.852Z,25.52
2022-12-04T02:59:33.777Z,19.08
2022-12-04T03:02:59.342Z,21.23
2022-12-04T03:05:55.858Z,20.55
2022-12-04T03:08:47.553Z,23.75
2022-12-04T03:11:38.370Z,21.88
2022-12-04T03:14:36.236Z,21.00
2022-12-04T03:17:31.382Z,21.80
2022-12-04T03:20:20.786Z,20.08
2022-12-04T03:23:20.266Z,21.33
2022-12-04T03:26:30.400Z,18.30
2022-12-04T03:29:34.163Z,19.83
2022-12-04T03:32:24.367Z,19.63
2022-12-04T03:35:26.138Z,19.23
2022-12-04T03:38:22.216Z,20.05
2022-12-04T03:41:21.546Z,19.00
2022-12-04T03:44:27.349Z,20.30
2022-12-04T03:47:25.229Z,19.67
2022-12-04T03:50:20.013Z,20.30
2022-12-04T03:53:24.509Z,20.23
2022-12-04T03:56:22.555Z,22.63
2022-12-04T03:59:20.825Z,20.92
2022-12-04T04:02:12.370Z,21.13
2022-12-04T04:05:01.579Z,21.92
2022-12-04T04:07:53.254Z,21.80
2022-12-04T04:10:40.840Z,21.67
2022-12-04T04:13:54.795Z,22.38
2022-12-04T04:17:08.414Z,19.00
2022-12-04T04:20:19.466Z,22.50
2022-12-04T04:23:29.359Z,25.58
2022-12-04T04:26:17.462Z,22.42
2022-12-04T04:29:04.582Z,20.33
2022-12-04T04:32:08.372Z,20.05
2022-12-04T04:35:20.926Z,21.20
2022-12-04T04:38:24.125Z,18.20
2022-12-04T04:41:35.032Z,18.58
2022-12-04T04:44:37.828Z,26.30
2022-12-04T04:47:50.370Z,20.08
2022-12-04T04:50:38.773Z,18.80
2022-12-04T04:53:31.470Z,21.42
2022-12-04T04:56:20.045Z,21.20
2022-12-04T04:59:07.170Z,21.58
2022-12-04T05:01:54.455Z,18.83
2022-12-04T05:04:41.543Z,22.30
2022-12-04T05:07:28.687Z,20.08
2022-12-04T05:10:15.876Z,18.95
2022-12-04T05:13:03.233Z,18.67
2022-12-04T05:16:02.058Z,20.27
2022-12-04T05:19:07.919Z,22.23
2022-12-04T05:21:55.057Z,19.88
2022-12-04T05:24:42.072Z,18.83
2022-12-04T05:27:30.844Z,21.55
2022-12-04T05:30:18.035Z,21.25
2022-12-04T05:33:05.558Z,21.00
2022-12-04T05:36:00.752Z,22.00
2022-12-04T05:38:47.830Z,28.23
2022-12-04T05:41:34.936Z,21.30
2022-12-04T05:44:22.064Z,22.50
2022-12-04T05:47:09.444Z,22.17
2022-12-04T05:49:56.895Z,24.67
2022-12-04T05:52:44.176Z,21.98
2022-12-04T05:55:31.304Z,21.90
2022-12-04T05:58:18.316Z,18.83
2022-12-04T06:01:13.986Z,18.27
2022-12-04T06:04:01.195Z,22.52
2022-12-04T06:06:48.498Z,22.58
2022-12-04T06:09:35.919Z,20.80
2022-12-04T06:12:23.006Z,21.77
2022-12-04T06:15:10.645Z,20.17
2022-12-04T06:17:57.791Z,20.67
2022-12-04T06:20:45.082Z,19.15
2022-12-04T06:23:32.328Z,19.55
2022-12-04T06:26:19.932Z,19.52
2022-12-04T06:29:07.063Z,19.60
2022-12-04T06:31:54.211Z,20.98
2022-12-04T06:34:41.437Z,21.52
2022-12-04T06:37:28.538Z,19.73
2022-12-04T06:40:15.719Z,20.85
2022-12-04T06:43:02.878Z,20.55
2022-12-04T06:46:00.377Z,19.90
2022-12-04T06:48:47.686Z,21.20
2022-12-04T06:51:37.563Z,23.88
2022-12-04T06:54:26.056Z,17.63
2022-12-04T06:57:13.133Z,16.58
2022-12-04T07:00:00.271Z,15.63
2022-12-04T07:02:47.329Z,14.35
2022-12-04T07:05:34.436Z,13.93
2022-12-04T07:08:21.687Z,13.70
2022-12-04T07:11:08.899Z,18.10
2022-12-04T07:13:56.439Z,16.20
2022-12-04T07:16:43.787Z,16.88
2022-12-04T07:19:30.963Z,14.82
2022-12-04T07:22:17.989Z,14.18
2022-12-04T07:25:05.646Z,11.48
2022-12-04T07:27:52.868Z,13.70
2022-12-04T07:30:39.962Z,13.93
2022-12-04T07:33:27.086Z,13.40
2022-12-04T07:36:17.120Z,14.98
2022-12-04T07:39:04.186Z,13.45
2022-12-04T07:41:51.361Z,15.93
2022-12-04T07:44:38.623Z,13.48
2022-12-04T07:47:25.654Z,14.25
2022-12-04T07:50:12.903Z,14.40
2022-12-04T07:53:00.029Z,14.60
2022-12-04T07:55:52.407Z,13.93
2022-12-04T07:58:40.530Z,16.02
2022-12-04T08:01:28.250Z,14.18
2022-12-04T08:04:15.624Z,13.30
2022-12-04T08:07:02.763Z,15.00
2022-12-04T08:09:49.822Z,18.80
2022-12-04T08:12:36.890Z,15.52
2022-12-04T08:15:23.912Z,16.50
2022-12-04T08:18:11.082Z,15.77
2022-12-04T08:21:13.880Z,18.08
2022-12-04T08:24:01.603Z,13.70
2022-12-04T08:26:48.808Z,15.57
2022-12-04T08:29:36.554Z,13.68
2022-12-04T08:32:23.570Z,14.98
2022-12-04T08:35:11.117Z,11.88
2022-12-04T08:37:58.153Z,13.60
2022-12-04T08:40:45.646Z,18.30
2022-12-04T08:43:33.069Z,13.88
2022-12-04T08:46:21.116Z,16.63
2022-12-04T08:49:08.486Z,14.10
2022-12-04T08:51:55.619Z,13.38
2022-12-04T08:54:43.038Z,13.88
2022-12-04T08:57:30.518Z,12.93
2022-12-04T09:00:17.958Z,15.82
2022-12-04T09:03:05.361Z,14.18
2022-12-04T09:05:52.501Z,12.93
2022-12-04T09:08:39.857Z,15.35
2022-12-04T09:11:30.575Z,14.27
2022-12-04T09:14:19.318Z,14.48
2022-12-04T09:17:06.553Z,11.85
2022-12-04T09:19:57.861Z,14.35
2022-12-04T09:23:03.573Z,12.48
2022-12-04T09:25:52.339Z,12.98
2022-12-04T09:28:39.336Z,12.45
2022-12-04T09:31:26.763Z,13.75
2022-12-04T09:34:13.925Z,12.30
2022-12-04T09:37:01.112Z,12.57
2022-12-04T09:39:48.249Z,11.82
2022-12-04T09:42:49.968Z,12.15
2022-12-04T09:45:48.941Z,12.40
2022-12-04T09:48:40.118Z,12.68
2022-12-04T09:54:22.601Z,12.93
2022-12-04T09:57:20.937Z,13.02
2022-12-04T10:00:13.484Z,14.77
2022-12-04T10:03:07.029Z,13.10
2022-12-04T10:06:19.947Z,14.07
2022-12-04T10:09:19.696Z,14.38
2022-12-04T10:12:13.193Z,13.98
2022-12-04T10:15:28.657Z,13.27
2022-12-04T10:18:37.720Z,15.18
2022-12-04T10:21:48.428Z,13.15
2022-12-04T10:24:51.913Z,13.63
2022-12-04T10:27:52.885Z,15.18
2022-12-04T10:30:43.571Z,13.15
2022-12-04T10:33:38.629Z,10.82
2022-12-04T10:36:32.645Z,12.60
2022-12-04T10:39:37.108Z,12.10
2022-12-04T10:42:35.403Z,12.40
2022-12-04T10:45:23.739Z,11.93
2022-12-04T10:48:23.224Z,13.10
2022-12-04T10:51:15.997Z,13.68
2022-12-04T10:54:18.387Z,11.25
2022-12-04T10:57:11.150Z,11.25
2022-12-04T11:00:00.192Z,11.18
2022-12-04T11:02:47.627Z,11.38
2022-12-04T11:05:45.197Z,10.82
2022-12-04T11:08:48.802Z,12.13
2022-12-04T11:11:35.951Z,10.70
2022-12-04T11:14:23.457Z,11.45
2022-12-04T11:17:17.520Z,11.45
2022-12-04T11:20:13.836Z,10.55
2022-12-04T11:23:01.203Z,11.05
2022-12-04T11:25:51.168Z,11.88
2022-12-04T11:28:42.420Z,9.90
2022-12-04T11:31:31.631Z,12.60
2022-12-04T11:34:22.840Z,10.95
2022-12-04T11:37:22.877Z,12.63
2022-12-04T11:40:19.006Z,11.70
2022-12-04T11:43:14.208Z,10.60
2022-12-04T11:46:06.887Z,10.48
2022-12-04T11:48:54.299Z,11.15
2022-12-04T11:51:41.320Z,10.95
2022-12-04T11:54:39.292Z,11.20
2022-12-04T11:57:37.647Z,10.18
2022-12-04T12:00:26.358Z,11.32
2022-12-04T12:03:23.966Z,10.48
2022-12-04T12:06:37.555Z,11.32
2022-12-04T12:09:37.006Z,10.75
2022-12-04T12:12:50.451Z,10.60
2022-12-04T12:16:11.811Z,12.60
2022-12-04T12:19:08.439Z,11.70
2022-12-04T12:22:25.890Z,12.82
2022-12-04T12:25:31.444Z,11.68
2022-12-04T12:28:41.846Z,13.77
2022-12-04T12:32:10.001Z,13.05
2022-12-04T12:34:58.216Z,13.48
2022-12-04T12:37:53.958Z,13.13
2022-12-04T12:40:47.359Z,15.07
2022-12-04T12:43:38.167Z,16.52
2022-12-04T12:46:30.997Z,13.10
2022-12-04T12:49:27.020Z,12.35
2022-12-04T12:52:20.059Z,11.18
2022-12-04T12:55:19.341Z,13.60
2022-12-04T12:58:15.228Z,11.55
2022-12-04T13:01:15.343Z,11.48
2022-12-04T13:04:33.869Z,11.85
2022-12-04T13:07:42.179Z,12.30
2022-12-04T13:10:39.806Z,12.85
2022-12-04T13:13:30.007Z,12.55
2022-12-04T13:16:25.523Z,12.90
2022-12-04T13:19:26.619Z,15.30
2022-12-04T13:22:40.031Z,17.15
2022-12-04T13:25:42.766Z,13.48
2022-12-04T13:29:03.903Z,14.50
2022-12-04T13:32:27.822Z,11.85
2022-12-04T13:35:42.223Z,12.10
2022-12-04T13:38:58.226Z,14.32
2022-12-04T13:41:45.790Z,13.52
2022-12-04T13:44:35.626Z,12.48
2022-12-04T13:47:56.842Z,11.23
2022-12-04T13:50:44.215Z,11.85
2022-12-04T13:53:37.647Z,14.45
2022-12-04T13:56:27.606Z,22.27
2022-12-04T13:59:20.780Z,18.73
2022-12-04T14:02:29.340Z,16.55
2022-12-04T14:05:16.520Z,20.83
2022-12-04T14:08:08.113Z,27.52
2022-12-04T14:11:28.855Z,16.65
2022-12-04T14:14:25.463Z,13.77
2022-12-04T14:17:25.529Z,12.73
2022-12-04T14:20:25.955Z,12.15
2022-12-04T14:23:16.350Z,12.97
2022-12-04T14:26:05.386Z,24.02
2022-12-04T14:28:52.746Z,14.65
2022-12-04T14:31:41.608Z,14.93
2022-12-04T14:34:31.770Z,12.70
2022-12-04T14:37:25.081Z,14.95
2022-12-04T14:40:23.760Z,15.43
2022-12-04T14:43:21.305Z,15.25
2022-12-04T14:46:32.203Z,22.42
2022-12-04T14:49:37.993Z,22.05
2022-12-04T14:52:35.141Z,14.98
2022-12-04T14:55:31.554Z,14.60
2022-12-04T14:58:30.095Z,14.35
2022-12-04T15:01:28.398Z,14.23
2022-12-04T15:04:27.718Z,13.10
2022-12-04T15:07:28.235Z,11.68
2022-12-04T15:10:43.794Z,12.45
2022-12-04T15:13:33.575Z,13.48
2022-12-04T15:16:23.023Z,14.63
2022-12-04T15:19:18.115Z,19.08
2022-12-04T15:22:11.800Z,17.65
2022-12-04T15:24:59.563Z,17.02
2022-12-04T15:27:49.742Z,14.18
2022-12-04T15:30:39.534Z,14.90
2022-12-04T15:33:30.685Z,15.32
2022-12-04T15:36:29.876Z,16.63
2022-12-04T15:39:23.393Z,18.25
2022-12-04T15:42:18.902Z,19.75
2022-12-04T15:45:09.129Z,17.85
2022-12-04T15:47:58.081Z,17.85
2022-12-04T15:50:55.917Z,17.73
2022-12-04T15:53:45.949Z,13.00
2022-12-04T15:56:33.076Z,12.88
2022-12-04T15:59:31.121Z,17.88
2022-12-04T16:02:42.818Z,18.50
2022-12-04T16:05:35.551Z,24.98
2022-12-04T16:08:43.445Z,25.98
2022-12-04T16:11:34.378Z,25.77
2022-12-04T16:14:21.705Z,22.80
2022-12-04T16:17:11.943Z,24.48
2022-12-04T16:19:59.996Z,24.77
2022-12-04T16:22:50.696Z,25.85
2022-12-04T16:25:37.888Z,28.70
2022-12-04T16:28:25.094Z,27.25
2022-12-04T16:31:13.630Z,30.77
2022-12-04T16:34:00.932Z,29.50
2022-12-04T16:36:48.037Z,24.35
2022-12-04T16:39:41.080Z,29.55
2022-12-04T16:42:29.993Z,24.52
2022-12-04T16:52:12.341Z,30.10
2022-12-04T16:55:04.390Z,25.98
2022-12-04T17:04:29.808Z,29.60
2022-12-04T17:07:16.873Z,23.52
2022-12-04T17:10:04.398Z,24.77
2022-12-04T17:12:55.036Z,34.65
2022-12-04T17:15:42.317Z,32.08
2022-12-04T17:18:29.500Z,60.58
2022-12-04T17:21:17.426Z,45.50
2022-12-04T17:24:05.050Z,24.10
2022-12-04T17:26:52.349Z,28.02
2022-12-04T17:29:39.471Z,28.15
2022-12-04T17:32:29.960Z,25.08
2022-12-04T17:35:17.296Z,21.90
2022-12-04T17:38:06.420Z,22.50
2022-12-04T17:44:11.698Z,22.85
2022-12-04T17:46:59.926Z,24.98
2022-12-04T17:49:51.622Z,33.05
2022-12-04T17:52:39.662Z,19.77
2022-12-04T17:55:30.022Z,28.42
2022-12-04T17:58:25.928Z,25.92
2022-12-04T18:01:25.601Z,21.25
2022-12-04T18:48:27.334Z,18.65
2022-12-04T18:51:40.949Z,19.48
2022-12-04T19:32:37.546Z,11.80
2022-12-04T19:35:25.156Z,13.50
2022-12-04T19:38:12.790Z,13.57
2022-12-04T19:41:12.088Z,11.48
2022-12-04T19:50:51.801Z,15.50
2022-12-04T19:53:56.594Z,11.23
2022-12-04T19:56:52.645Z,16.05
2022-12-04T19:59:46.004Z,14.40
2022-12-04T20:11:43.348Z,16.80
2022-12-04T20:14:31.315Z,13.65
2022-12-04T20:17:18.450Z,12.50
2022-12-04T20:20:06.635Z,17.15
2022-12-04T20:22:53.911Z,18.00
2022-12-04T20:25:41.115Z,14.40
2022-12-04T20:28:28.497Z,15.18
2022-12-04T20:31:24.812Z,11.88
2022-12-04T20:34:15.507Z,14.43
2022-12-04T20:37:02.945Z,11.38
2022-12-04T20:40:02.377Z,17.30
2022-12-04T20:43:22.741Z,12.27
2022-12-04T20:46:23.119Z,10.88
2022-12-04T20:49:18.838Z,12.55
2022-12-04T20:52:08.151Z,9.45
2022-12-04T20:54:55.239Z,11.30
2022-12-04T20:57:42.746Z,12.00
2022-12-04T21:00:39.979Z,10.48
2022-12-04T21:03:38.266Z,11.00
2022-12-04T21:06:36.085Z,12.82
2022-12-04T21:09:25.357Z,13.20
2022-12-04T21:12:31.919Z,10.88
2022-12-04T21:18:50.923Z,10.00
2022-12-04T21:21:38.704Z,13.07
2022-12-04T21:24:27.997Z,10.10
2022-12-04T21:30:50.162Z,8.68
2022-12-04T21:33:48.078Z,9.60
2022-12-04T21:36:35.768Z,9.23
2022-12-04T21:39:24.015Z,10.43
2022-12-04T21:42:30.145Z,8.90
2022-12-04T21:45:18.369Z,9.30
2022-12-04T21:47:59.252Z,8.35
2022-12-04T21:50:46.549Z,8.85
2022-12-04T21:53:38.103Z,9.27
2022-12-04T21:56:28.543Z,9.32
2022-12-04T21:59:16.070Z,8.27
2022-12-04T22:02:04.231Z,10.70
2022-12-04T22:04:51.610Z,9.77
2022-12-04T22:07:38.834Z,12.80
2022-12-04T22:10:26.042Z,8.48
2022-12-04T22:16:39.862Z,10.52
2022-12-04T22:19:28.896Z,10.02
2022-12-04T22:22:16.034Z,14.85
2022-12-04T22:25:03.165Z,9.60
2022-12-04T22:27:50.330Z,12.73
2022-12-04T22:30:37.694Z,14.80
2022-12-04T22:33:24.902Z,10.27
2022-12-04T22:36:15.070Z,11.95
2022-12-04T22:39:10.788Z,11.70
2022-12-04T22:41:58.347Z,14.52
2022-12-04T22:44:45.512Z,11.43
2022-12-04T22:47:32.892Z,12.80
2022-12-04T22:50:19.969Z,11.07
2022-12-04T22:53:07.025Z,15.00
2022-12-04T22:55:54.420Z,11.73
2022-12-04T22:58:41.975Z,14.65
2022-12-04T23:01:31.475Z,15.00
2022-12-04T23:04:18.687Z,15.05
2022-12-04T23:07:06.137Z,13.32
2022-12-04T23:09:53.462Z,11.90
2022-12-04T23:12:40.578Z,16.92
2022-12-04T23:15:27.639Z,14.57
2022-12-04T23:18:14.934Z,11.45
2022-12-04T23:21:07.852Z,10.68
2022-12-04T23:23:56.507Z,13.65
2022-12-04T23:26:46.042Z,12.90
2022-12-04T23:36:16.040Z,10.60
2022-12-04T23:39:03.575Z,12.40
2022-12-04T23:41:50.705Z,10.10
2022-12-04T23:44:37.782Z,12.43
2022-12-04T23:47:25.174Z,13.93
2022-12-04T23:50:12.450Z,11.70
2022-12-04T23:52:59.786Z,9.98
2022-12-04T23:56:02.260Z,11.68
2022-12-04T23:58:51.171Z,13.00
